Raymond, Canada
Current Conditions -  °F | °C
As of 7:00 AM on Sunday 23 Nov 2014 (Local Time) from CYQL Reporting Station
Few Clouds Few Clouds  
Wind Chill: -10°   Ceiling: Unl
Heat Index: -6°   Visibility: 15mi
Dew Point: -7°   Wind: 5mph
Humidity: 93%   Direction: 150°SSE
Pressure: 29.83"   Gusts: NA
Location:  49.47°N, 112.66°W
Report Text: CYQL 231400Z 15004KT 15SM FEW100 M06/M07 A2983 RMK AC1 AC TR SLP139
Loading
Personal Weather Stations






























Interactive Weather Map New forecast layout! Learn more

10-Day Weather Forecast

Advertisements
Track Severe Weather on mobile